sensor_id;sensor_type;location;lat;lon;timestamp;pressure;altitude;pressure_sealevel;temperature;humidity
10606;BME280;5350;42.698;23.148;2023-04-27T00:00:11;93361.31;;;7.14;67.75
10606;BME280;5350;42.698;23.148;2023-04-27T00:02:38;93364.28;;;7.02;67.69
10606;BME280;5350;42.698;23.148;2023-04-27T00:05:06;93361.41;;;6.99;67.93
10606;BME280;5350;42.698;23.148;2023-04-27T00:07:35;93351.56;;;6.91;69.16
10606;BME280;5350;42.698;23.148;2023-04-27T00:10:02;93362.25;;;6.94;68.17
10606;BME280;5350;42.698;23.148;2023-04-27T00:12:29;93362.06;;;6.86;68.72
10606;BME280;5350;42.698;23.148;2023-04-27T00:14:56;93370.16;;;6.84;69.30
10606;BME280;5350;42.698;23.148;2023-04-27T00:17:22;93369.47;;;6.69;69.41
10606;BME280;5350;42.698;23.148;2023-04-27T00:19:49;93371.25;;;6.78;69.31
10606;BME280;5350;42.698;23.148;2023-04-27T00:22:16;93372.31;;;6.77;69.15
10606;BME280;5350;42.698;23.148;2023-04-27T00:24:44;93371.31;;;6.68;69.48
10606;BME280;5350;42.698;23.148;2023-04-27T00:27:11;93368.22;;;6.61;69.05
10606;BME280;5350;42.698;23.148;2023-04-27T00:29:38;93378.69;;;6.56;69.41
10606;BME280;5350;42.698;23.148;2023-04-27T00:32:07;93368.75;;;6.58;69.24
10606;BME280;5350;42.698;23.148;2023-04-27T00:34:34;93369.84;;;6.47;70.21
10606;BME280;5350;42.698;23.148;2023-04-27T00:37:00;93375.06;;;6.47;69.54
10606;BME280;5350;42.698;23.148;2023-04-27T00:39:27;93376.09;;;6.51;69.90
10606;BME280;5350;42.698;23.148;2023-04-27T00:41:55;93375.06;;;6.52;69.35
10606;BME280;5350;42.698;23.148;2023-04-27T00:44:22;93366.72;;;6.45;70.14
10606;BME280;5350;42.698;23.148;2023-04-27T00:46:50;93375.66;;;6.39;70.81
10606;BME280;5350;42.698;23.148;2023-04-27T00:49:17;93376.72;;;6.33;70.36
10606;BME280;5350;42.698;23.148;2023-04-27T00:51:45;93386.13;;;6.29;70.95
10606;BME280;5350;42.698;23.148;2023-04-27T00:54:12;93374.13;;;6.28;71.49
10606;BME280;5350;42.698;23.148;2023-04-27T00:56:40;93377.78;;;6.27;70.96
10606;BME280;5350;42.698;23.148;2023-04-27T00:59:08;93379.63;;;6.26;71.07
10606;BME280;5350;42.698;23.148;2023-04-27T01:01:35;93374.66;;;6.25;70.48
10606;BME280;5350;42.698;23.148;2023-04-27T01:04:02;93379.91;;;6.20;70.38
10606;BME280;5350;42.698;23.148;2023-04-27T01:06:29;93380.41;;;6.22;71.66
10606;BME280;5350;42.698;23.148;2023-04-27T01:08:56;93383.59;;;6.14;70.75
10606;BME280;5350;42.698;23.148;2023-04-27T01:11:23;93385.91;;;6.15;71.00
10606;BME280;5350;42.698;23.148;2023-04-27T01:13:50;93378.63;;;6.12;71.11
10606;BME280;5350;42.698;23.148;2023-04-27T01:16:18;93381.25;;;6.07;71.47
10606;BME280;5350;42.698;23.148;2023-04-27T01:18:45;93381.28;;;6.02;71.65
10606;BME280;5350;42.698;23.148;2023-04-27T01:21:12;93389.09;;;6.07;71.18
10606;BME280;5350;42.698;23.148;2023-04-27T01:23:40;93387.31;;;6.03;71.31
10606;BME280;5350;42.698;23.148;2023-04-27T01:26:07;93385.72;;;5.97;71.69
10606;BME280;5350;42.698;23.148;2023-04-27T01:28:36;93354.72;;;5.70;71.42
10606;BME280;5350;42.698;23.148;2023-04-27T01:31:03;93389.91;;;5.98;71.59
10606;BME280;5350;42.698;23.148;2023-04-27T01:33:29;93386.50;;;5.97;71.60
10606;BME280;5350;42.698;23.148;2023-04-27T01:35:56;93393.56;;;5.97;71.69
10606;BME280;5350;42.698;23.148;2023-04-27T01:38:23;93387.84;;;5.90;72.25
10606;BME280;5350;42.698;23.148;2023-04-27T01:40:51;93340.66;;;5.56;71.64
10606;BME280;5350;42.698;23.148;2023-04-27T01:43:19;93393.28;;;6.03;70.94
10606;BME280;5350;42.698;23.148;2023-04-27T01:45:46;93380.25;;;5.93;70.59
10606;BME280;5350;42.698;23.148;2023-04-27T01:48:13;93385.75;;;5.87;71.09
10606;BME280;5350;42.698;23.148;2023-04-27T01:50:40;93395.16;;;5.88;70.84
10606;BME280;5350;42.698;23.148;2023-04-27T01:53:07;93394.13;;;5.84;71.51
10606;BME280;5350;42.698;23.148;2023-04-27T01:55:34;93396.44;;;5.80;71.61
10606;BME280;5350;42.698;23.148;2023-04-27T01:58:02;93402.22;;;5.92;70.67
10606;BME280;5350;42.698;23.148;2023-04-27T02:00:29;93396.47;;;5.90;71.96
10606;BME280;5350;42.698;23.148;2023-04-27T02:02:56;93394.88;;;5.94;70.73
10606;BME280;5350;42.698;23.148;2023-04-27T02:05:24;93340.16;;;5.49;71.71
10606;BME280;5350;42.698;23.148;2023-04-27T02:07:51;93412.63;;;5.82;71.49
10606;BME280;5350;42.698;23.148;2023-04-27T02:10:18;93390.97;;;5.82;70.69
10606;BME280;5350;42.698;23.148;2023-04-27T02:12:46;93398.56;;;5.73;70.58
10606;BME280;5350;42.698;23.148;2023-04-27T02:15:15;93402.22;;;5.87;70.86
10606;BME280;5350;42.698;23.148;2023-04-27T02:17:41;93405.59;;;5.78;71.05
10606;BME280;5350;42.698;23.148;2023-04-27T02:20:09;93393.34;;;5.73;71.48
10606;BME280;5350;42.698;23.148;2023-04-27T02:22:39;93405.31;;;5.74;70.82
10606;BME280;5350;42.698;23.148;2023-04-27T02:25:08;93400.91;;;5.75;70.67
10606;BME280;5350;42.698;23.148;2023-04-27T02:27:36;93403.00;;;5.62;71.22
10606;BME280;5350;42.698;23.148;2023-04-27T02:30:04;93406.63;;;5.82;70.14
10606;BME280;5350;42.698;23.148;2023-04-27T02:32:32;93398.81;;;5.77;70.29
10606;BME280;5350;42.698;23.148;2023-04-27T02:35:00;93398.53;;;5.83;69.84
10606;BME280;5350;42.698;23.148;2023-04-27T02:37:26;93401.97;;;5.74;70.29
10606;BME280;5350;42.698;23.148;2023-04-27T02:39:53;93416.06;;;5.88;69.39
10606;BME280;5350;42.698;23.148;2023-04-27T02:42:20;93411.84;;;5.82;70.07
10606;BME280;5350;42.698;23.148;2023-04-27T02:44:47;93415.53;;;5.71;70.59
10606;BME280;5350;42.698;23.148;2023-04-27T02:47:13;93405.09;;;5.71;70.68
10606;BME280;5350;42.698;23.148;2023-04-27T02:49:42;93418.13;;;5.76;70.82
10606;BME280;5350;42.698;23.148;2023-04-27T02:52:08;93417.06;;;5.82;71.29
10606;BME280;5350;42.698;23.148;2023-04-27T02:54:35;93411.59;;;5.78;70.52
10606;BME280;5350;42.698;23.148;2023-04-27T02:57:02;93421.25;;;5.67;70.83
10606;BME280;5350;42.698;23.148;2023-04-27T02:59:29;93420.22;;;5.68;69.51
10606;BME280;5350;42.698;23.148;2023-04-27T03:01:55;93419.16;;;5.69;71.32
10606;BME280;5350;42.698;23.148;2023-04-27T03:04:22;93424.91;;;5.61;70.63
10606;BME280;5350;42.698;23.148;2023-04-27T03:06:50;93422.56;;;5.70;69.91
10606;BME280;5350;42.698;23.148;2023-04-27T03:09:17;93426.47;;;5.67;69.45
10606;BME280;5350;42.698;23.148;2023-04-27T03:11:43;93421.25;;;5.67;70.65
10606;BME280;5350;42.698;23.148;2023-04-27T03:14:10;93422.56;;;5.70;70.26
10606;BME280;5350;42.698;23.148;2023-04-27T03:16:38;93410.59;;;5.54;70.51
10606;BME280;5350;42.698;23.148;2023-04-27T03:19:05;93437.19;;;5.71;69.15
10606;BME280;5350;42.698;23.148;2023-04-27T03:21:31;93445.78;;;5.87;68.42
10606;BME280;5350;42.698;23.148;2023-04-27T03:23:59;93437.69;;;5.78;69.25
10606;BME280;5350;42.698;23.148;2023-04-27T03:26:26;93443.97;;;5.72;70.85
10606;BME280;5350;42.698;23.148;2023-04-27T03:28:53;93443.16;;;5.72;69.14
10606;BME280;5350;42.698;23.148;2023-04-27T03:31:20;93455.44;;;5.71;68.94
10606;BME280;5350;42.698;23.148;2023-04-27T03:33:46;93447.09;;;5.74;68.22
10606;BME280;5350;42.698;23.148;2023-04-27T03:36:13;93452.31;;;5.64;69.88
10606;BME280;5350;42.698;23.148;2023-04-27T03:38:40;93450.50;;;5.64;69.90
10606;BME280;5350;42.698;23.148;2023-04-27T03:41:08;93454.13;;;5.63;70.32
10606;BME280;5350;42.698;23.148;2023-04-27T03:43:35;93453.63;;;5.61;70.35
10606;BME280;5350;42.698;23.148;2023-04-27T03:46:02;93455.19;;;5.47;69.42
10606;BME280;5350;42.698;23.148;2023-04-27T03:48:29;93453.38;;;5.48;70.52
10606;BME280;5350;42.698;23.148;2023-04-27T03:50:56;93453.63;;;5.41;71.72
10606;BME280;5350;42.698;23.148;2023-04-27T03:53:22;93462.75;;;5.29;72.79
10606;BME280;5350;42.698;23.148;2023-04-27T03:55:49;93467.97;;;5.24;70.94
10606;BME280;5350;42.698;23.148;2023-04-27T03:58:17;93471.88;;;5.16;70.59
10606;BME280;5350;42.698;23.148;2023-04-27T04:00:44;93472.66;;;5.07;71.93
10606;BME280;5350;42.698;23.148;2023-04-27T04:03:11;93474.72;;;5.10;71.19
10606;BME280;5350;42.698;23.148;2023-04-27T04:05:37;93475.78;;;5.19;71.82
10606;BME280;5350;42.698;23.148;2023-04-27T04:08:04;93473.16;;;5.24;70.24
10606;BME280;5350;42.698;23.148;2023-04-27T04:10:31;93476.34;;;5.36;70.68
10606;BME280;5350;42.698;23.148;2023-04-27T04:12:57;93481.28;;;5.37;70.61
10606;BME280;5350;42.698;23.148;2023-04-27T04:15:25;93486.75;;;5.51;70.24
10606;BME280;5350;42.698;23.148;2023-04-27T04:17:52;93484.16;;;5.46;70.66
10606;BME280;5350;42.698;23.148;2023-04-27T04:20:19;93491.19;;;5.55;68.34
10606;BME280;5350;42.698;23.148;2023-04-27T04:22:45;93490.94;;;5.67;68.56
10606;BME280;5350;42.698;23.148;2023-04-27T04:25:12;93489.13;;;5.73;67.62
10606;BME280;5350;42.698;23.148;2023-04-27T04:27:39;93494.34;;;5.78;67.43
10606;BME280;5350;42.698;23.148;2023-04-27T04:30:06;93494.34;;;5.73;67.61
10606;BME280;5350;42.698;23.148;2023-04-27T04:32:35;93500.59;;;5.87;68.11
10606;BME280;5350;42.698;23.148;2023-04-27T04:35:03;93494.06;;;5.84;67.91
10606;BME280;5350;42.698;23.148;2023-04-27T04:37:32;93506.09;;;5.85;67.72
10606;BME280;5350;42.698;23.148;2023-04-27T04:39:59;93489.13;;;5.88;67.04
10606;BME280;5350;42.698;23.148;2023-04-27T04:42:25;93506.84;;;6.06;66.78
10606;BME280;5350;42.698;23.148;2023-04-27T04:44:52;93500.59;;;6.12;64.60
10606;BME280;5350;42.698;23.148;2023-04-27T04:47:19;93507.91;;;6.00;65.72
10606;BME280;5350;42.698;23.148;2023-04-27T04:49:47;93512.84;;;6.16;66.80
10606;BME280;5350;42.698;23.148;2023-04-27T04:52:14;93515.47;;;6.11;65.75
10606;BME280;5350;42.698;23.148;2023-04-27T04:54:41;93525.13;;;6.21;64.92
10606;BME280;5350;42.698;23.148;2023-04-27T04:57:08;93525.09;;;6.31;65.31
10606;BME280;5350;42.698;23.148;2023-04-27T04:59:34;93516.44;;;6.40;64.86
10606;BME280;5350;42.698;23.148;2023-04-27T05:02:01;93526.06;;;6.60;64.80
10606;BME280;5350;42.698;23.148;2023-04-27T05:04:28;93517.16;;;6.71;63.85
10606;BME280;5350;42.698;23.148;2023-04-27T05:06:56;93524.44;;;6.74;62.20
10606;BME280;5350;42.698;23.148;2023-04-27T05:09:24;93526.50;;;6.82;63.45
10606;BME280;5350;42.698;23.148;2023-04-27T05:11:51;93539.06;;;6.80;61.83
10606;BME280;5350;42.698;23.148;2023-04-27T05:14:17;93530.47;;;6.75;62.74
10606;BME280;5350;42.698;23.148;2023-04-27T05:16:44;93539.31;;;6.84;62.53
10606;BME280;5350;42.698;23.148;2023-04-27T05:19:13;93541.16;;;6.78;62.63
10606;BME280;5350;42.698;23.148;2023-04-27T05:21:42;93541.66;;;6.85;62.43
10606;BME280;5350;42.698;23.148;2023-04-27T05:24:10;93542.16;;;6.92;62.17
10606;BME280;5350;42.698;23.148;2023-04-27T05:26:38;93548.44;;;6.96;63.46
10606;BME280;5350;42.698;23.148;2023-04-27T05:29:05;93516.31;;;6.86;61.14
10606;BME280;5350;42.698;23.148;2023-04-27T05:31:32;93546.31;;;6.98;64.12
10606;BME280;5350;42.698;23.148;2023-04-27T05:33:59;93548.16;;;6.93;61.61
10606;BME280;5350;42.698;23.148;2023-04-27T05:36:25;93557.84;;;6.92;61.88
10606;BME280;5350;42.698;23.148;2023-04-27T05:38:52;93550.50;;;6.99;62.19
10606;BME280;5350;42.698;23.148;2023-04-27T05:41:20;93556.19;;;7.11;63.90
10606;BME280;5350;42.698;23.148;2023-04-27T05:43:47;93561.16;;;7.13;62.51
10606;BME280;5350;42.698;23.148;2023-04-27T05:46:14;93564.31;;;7.10;61.71
10606;BME280;5350;42.698;23.148;2023-04-27T05:48:41;93562.47;;;7.10;60.77
10606;BME280;5350;42.698;23.148;2023-04-27T05:51:08;93569.75;;;7.23;63.03
10606;BME280;5350;42.698;23.148;2023-04-27T05:53:34;93562.44;;;7.15;61.62
10606;BME280;5350;42.698;23.148;2023-04-27T05:56:01;93569.25;;;7.16;61.32
10606;BME280;5350;42.698;23.148;2023-04-27T05:58:32;93569.75;;;7.23;61.75
10606;BME280;5350;42.698;23.148;2023-04-27T06:00:59;93573.91;;;7.30;62.48
10606;BME280;5350;42.698;23.148;2023-04-27T06:03:26;93562.88;;;7.38;62.14
10606;BME280;5350;42.698;23.148;2023-04-27T06:05:53;93576.19;;;7.41;61.77
10606;BME280;5350;42.698;23.148;2023-04-27T06:08:20;93568.34;;;7.41;62.62
10606;BME280;5350;42.698;23.148;2023-04-27T06:10:47;93577.50;;;7.44;61.07
10606;BME280;5350;42.698;23.148;2023-04-27T06:13:14;93565.94;;;7.50;61.46
10606;BME280;5350;42.698;23.148;2023-04-27T06:15:42;93570.66;;;7.48;60.40
10606;BME280;5350;42.698;23.148;2023-04-27T06:18:09;93575.38;;;7.46;60.99
10606;BME280;5350;42.698;23.148;2023-04-27T06:20:35;93563.25;;;7.60;61.47
10606;BME280;5350;42.698;23.148;2023-04-27T06:23:02;93560.63;;;7.60;60.69
10606;BME280;5350;42.698;23.148;2023-04-27T06:25:29;93558.03;;;7.60;60.72
10606;BME280;5350;42.698;23.148;2023-04-27T06:27:56;93550.94;;;7.65;59.91
10606;BME280;5350;42.698;23.148;2023-04-27T06:30:23;93552.78;;;7.60;60.20
10606;BME280;5350;42.698;23.148;2023-04-27T06:32:51;93550.69;;;7.62;60.06
10606;BME280;5350;42.698;23.148;2023-04-27T06:35:18;93549.59;;;7.68;60.03
10606;BME280;5350;42.698;23.148;2023-04-27T06:37:45;93557.44;;;7.68;60.12
10606;BME280;5350;42.698;23.148;2023-04-27T06:40:12;93548.69;;;7.82;59.59
10606;BME280;5350;42.698;23.148;2023-04-27T06:42:39;93564.63;;;7.91;60.25
10606;BME280;5350;42.698;23.148;2023-04-27T06:45:06;93545.53;;;7.90;60.30
10606;BME280;5350;42.698;23.148;2023-04-27T06:47:33;93548.38;;;7.89;57.70
10606;BME280;5350;42.698;23.148;2023-04-27T06:50:02;93546.59;;;7.84;58.56
10606;BME280;5350;42.698;23.148;2023-04-27T06:52:30;93547.06;;;7.91;58.15
10606;BME280;5350;42.698;23.148;2023-04-27T06:54:57;93559.56;;;7.99;57.09
10606;BME280;5350;42.698;23.148;2023-04-27T06:57:24;93552.63;;;7.85;56.92
10606;BME280;5350;42.698;23.148;2023-04-27T06:59:50;93557.03;;;7.89;56.78
10606;BME280;5350;42.698;23.148;2023-04-27T07:02:17;93571.53;;;7.77;56.92
10606;BME280;5350;42.698;23.148;2023-04-27T07:04:44;93550.59;;;7.77;55.72
10606;BME280;5350;42.698;23.148;2023-04-27T07:07:12;93553.19;;;7.77;56.03
10606;BME280;5350;42.698;23.148;2023-04-27T07:09:39;93553.09;;;7.92;55.35
10606;BME280;5350;42.698;23.148;2023-04-27T07:12:05;93543.03;;;8.04;54.72
10606;BME280;5350;42.698;23.148;2023-04-27T07:14:32;93556.50;;;8.26;56.60
10606;BME280;5350;42.698;23.148;2023-04-27T07:16:59;93546.03;;;8.55;55.80
10606;BME280;5350;42.698;23.148;2023-04-27T07:19:25;93557.13;;;8.47;54.99
10606;BME280;5350;42.698;23.148;2023-04-27T07:21:52;93552.66;;;8.71;54.58
10606;BME280;5350;42.698;23.148;2023-04-27T07:24:20;93558.47;;;8.92;54.21
10606;BME280;5350;42.698;23.148;2023-04-27T07:26:47;93554.19;;;9.01;53.26
10606;BME280;5350;42.698;23.148;2023-04-27T07:29:13;93552.97;;;9.12;52.70
10606;BME280;5350;42.698;23.148;2023-04-27T07:31:41;93554.78;;;8.93;51.53
10606;BME280;5350;42.698;23.148;2023-04-27T07:34:08;93552.75;;;8.84;52.15
10606;BME280;5350;42.698;23.148;2023-04-27T07:36:35;93555.50;;;8.74;52.85
10606;BME280;5350;42.698;23.148;2023-04-27T07:39:02;93556.91;;;8.91;54.67
10606;BME280;5350;42.698;23.148;2023-04-27T07:41:32;93559.13;;;9.02;52.34
10606;BME280;5350;42.698;23.148;2023-04-27T07:43:59;93552.38;;;9.20;53.58
10606;BME280;5350;42.698;23.148;2023-04-27T07:46:26;93555.88;;;9.10;52.09
10606;BME280;5350;42.698;23.148;2023-04-27T07:48:54;93556.09;;;9.14;50.66
10606;BME280;5350;42.698;23.148;2023-04-27T07:51:24;93553.72;;;9.36;52.35
10606;BME280;5350;42.698;23.148;2023-04-27T07:53:52;93558.94;;;9.59;51.86
10606;BME280;5350;42.698;23.148;2023-04-27T07:56:19;93556.94;;;9.70;51.41
10606;BME280;5350;42.698;23.148;2023-04-27T07:58:47;93549.69;;;9.81;51.20
10606;BME280;5350;42.698;23.148;2023-04-27T08:01:14;93559.25;;;10.09;50.50
10606;BME280;5350;42.698;23.148;2023-04-27T08:03:41;93560.66;;;10.01;49.53
10606;BME280;5350;42.698;23.148;2023-04-27T08:06:08;93566.94;;;10.05;48.81
10606;BME280;5350;42.698;23.148;2023-04-27T08:08:35;93575.56;;;10.06;48.85
10606;BME280;5350;42.698;23.148;2023-04-27T08:11:02;93553.00;;;10.23;49.33
10606;BME280;5350;42.698;23.148;2023-04-27T08:13:29;93572.81;;;10.34;45.83
10606;BME280;5350;42.698;23.148;2023-04-27T08:15:57;93564.31;;;10.37;46.77
10606;BME280;5350;42.698;23.148;2023-04-27T08:18:24;93565.13;;;10.38;45.12
10606;BME280;5350;42.698;23.148;2023-04-27T08:20:51;93572.56;;;10.31;45.08
10606;BME280;5350;42.698;23.148;2023-04-27T08:23:18;93574.34;;;10.35;45.56
10606;BME280;5350;42.698;23.148;2023-04-27T08:25:45;93543.09;;;10.34;46.26
10606;BME280;5350;42.698;23.148;2023-04-27T08:28:11;93555.50;;;10.61;45.50
10606;BME280;5350;42.698;23.148;2023-04-27T08:30:40;93555.56;;;10.42;46.17
10606;BME280;5350;42.698;23.148;2023-04-27T08:33:08;93544.06;;;10.38;46.23
10606;BME280;5350;42.698;23.148;2023-04-27T08:35:35;93556.78;;;10.63;45.36
10606;BME280;5350;42.698;23.148;2023-04-27T08:38:02;93563.81;;;10.68;44.36
10606;BME280;5350;42.698;23.148;2023-04-27T08:40:29;93551.91;;;10.70;44.70
10606;BME280;5350;42.698;23.148;2023-04-27T08:42:57;93559.44;;;10.77;45.60
10606;BME280;5350;42.698;23.148;2023-04-27T08:45:25;93564.00;;;10.85;46.09
10606;BME280;5350;42.698;23.148;2023-04-27T08:47:52;93557.97;;;10.98;45.11
10606;BME280;5350;42.698;23.148;2023-04-27T08:50:21;93557.78;;;11.08;45.34
10606;BME280;5350;42.698;23.148;2023-04-27T08:52:49;93572.41;;;11.00;44.18
10606;BME280;5350;42.698;23.148;2023-04-27T08:55:16;93559.75;;;10.89;45.58
10606;BME280;5350;42.698;23.148;2023-04-27T08:57:53;93561.97;;;10.82;44.86
10606;BME280;5350;42.698;23.148;2023-04-27T09:00:20;93558.25;;;11.10;45.01
10606;BME280;5350;42.698;23.148;2023-04-27T09:02:48;93563.66;;;11.05;43.74
10606;BME280;5350;42.698;23.148;2023-04-27T09:05:15;93565.00;;;11.02;44.89
10606;BME280;5350;42.698;23.148;2023-04-27T09:07:55;93564.59;;;10.82;43.21
10606;BME280;5350;42.698;23.148;2023-04-27T09:10:22;93558.75;;;11.12;45.27
10606;BME280;5350;42.698;23.148;2023-04-27T09:12:54;93554.75;;;11.28;43.64
10606;BME280;5350;42.698;23.148;2023-04-27T09:15:21;93549.94;;;11.44;44.21
10606;BME280;5350;42.698;23.148;2023-04-27T09:17:52;93554.59;;;11.60;43.63
10606;BME280;5350;42.698;23.148;2023-04-27T09:20:19;93557.66;;;11.40;44.36
10606;BME280;5350;42.698;23.148;2023-04-27T09:22:49;93551.03;;;11.43;44.18
10606;BME280;5350;42.698;23.148;2023-04-27T09:25:24;93555.63;;;11.37;44.05
10606;BME280;5350;42.698;23.148;2023-04-27T09:27:50;93557.28;;;11.33;43.45
10606;BME280;5350;42.698;23.148;2023-04-27T09:30:18;93550.94;;;11.34;43.14
10606;BME280;5350;42.698;23.148;2023-04-27T09:32:50;93549.38;;;11.47;43.41
10606;BME280;5350;42.698;23.148;2023-04-27T09:35:21;93539.69;;;11.69;44.73
10606;BME280;5350;42.698;23.148;2023-04-27T09:37:50;93534.47;;;12.14;42.63
10606;BME280;5350;42.698;23.148;2023-04-27T09:40:19;93544.03;;;11.87;41.54
10606;BME280;5350;42.698;23.148;2023-04-27T09:42:48;93540.06;;;11.76;42.66
10606;BME280;5350;42.698;23.148;2023-04-27T09:45:16;93538.88;;;11.82;41.95
10606;BME280;5350;42.698;23.148;2023-04-27T09:47:43;93536.25;;;11.82;41.17
10606;BME280;5350;42.698;23.148;2023-04-27T09:50:12;93523.28;;;11.72;41.65
10606;BME280;5350;42.698;23.148;2023-04-27T09:52:39;93489.59;;;11.47;41.17
10606;BME280;5350;42.698;23.148;2023-04-27T09:55:09;93519.56;;;11.73;41.58
10606;BME280;5350;42.698;23.148;2023-04-27T09:57:42;93513.81;;;11.58;41.08
10606;BME280;5350;42.698;23.148;2023-04-27T10:00:22;93515.25;;;11.77;42.87
10606;BME280;5350;42.698;23.148;2023-04-27T10:03:02;93510.31;;;12.20;41.86
10606;BME280;5350;42.698;23.148;2023-04-27T10:05:40;93511.00;;;12.65;40.99
10606;BME280;5350;42.698;23.148;2023-04-27T10:08:12;93509.78;;;13.10;40.82
10606;BME280;5350;42.698;23.148;2023-04-27T10:10:47;93509.66;;;13.07;40.38
10606;BME280;5350;42.698;23.148;2023-04-27T10:13:21;93514.78;;;12.81;38.95
10606;BME280;5350;42.698;23.148;2023-04-27T10:15:48;93521.09;;;12.63;39.83
10606;BME280;5350;42.698;23.148;2023-04-27T10:18:26;93503.63;;;12.84;37.02
10606;BME280;5350;42.698;23.148;2023-04-27T10:20:53;93499.34;;;12.57;37.23
10606;BME280;5350;42.698;23.148;2023-04-27T10:23:24;93490.97;;;13.03;39.70
10606;BME280;5350;42.698;23.148;2023-04-27T10:25:53;93499.19;;;13.49;38.42
10606;BME280;5350;42.698;23.148;2023-04-27T10:28:21;93501.34;;;13.47;37.56
10606;BME280;5350;42.698;23.148;2023-04-27T10:30:48;93499.03;;;13.63;37.32
10606;BME280;5350;42.698;23.148;2023-04-27T10:33:17;93504.84;;;13.09;35.97
10606;BME280;5350;42.698;23.148;2023-04-27T10:35:53;93498.22;;;13.28;36.78
10606;BME280;5350;42.698;23.148;2023-04-27T10:38:27;93507.69;;;13.38;36.15
10606;BME280;5350;42.698;23.148;2023-04-27T10:40:56;93502.13;;;13.00;36.25
10606;BME280;5350;42.698;23.148;2023-04-27T10:43:27;93494.81;;;12.89;36.47
10606;BME280;5350;42.698;23.148;2023-04-27T10:45:54;93416.75;;;12.18;36.50
10606;BME280;5350;42.698;23.148;2023-04-27T10:48:32;93494.75;;;13.19;38.27
10606;BME280;5350;42.698;23.148;2023-04-27T10:51:00;93500.03;;;13.11;36.49
10606;BME280;5350;42.698;23.148;2023-04-27T10:53:33;93497.13;;;12.90;36.96
10606;BME280;5350;42.698;23.148;2023-04-27T10:56:01;93505.94;;;12.77;38.54
10606;BME280;5350;42.698;23.148;2023-04-27T10:58:30;93507.81;;;12.76;36.94
10606;BME280;5350;42.698;23.148;2023-04-27T11:00:57;93464.28;;;12.65;35.88
10606;BME280;5350;42.698;23.148;2023-04-27T11:03:24;93495.09;;;13.26;36.03
10606;BME280;5350;42.698;23.148;2023-04-27T11:05:58;93491.56;;;13.82;37.92
10606;BME280;5350;42.698;23.148;2023-04-27T11:08:25;93493.56;;;14.28;37.06
10606;BME280;5350;42.698;23.148;2023-04-27T11:10:52;93489.06;;;14.11;36.03
10606;BME280;5350;42.698;23.148;2023-04-27T11:13:24;93457.31;;;14.20;35.49
10606;BME280;5350;42.698;23.148;2023-04-27T11:15:54;93488.25;;;14.45;34.83
10606;BME280;5350;42.698;23.148;2023-04-27T11:18:22;93511.59;;;14.26;35.35
10606;BME280;5350;42.698;23.148;2023-04-27T11:20:51;93478.66;;;13.55;36.46
10606;BME280;5350;42.698;23.148;2023-04-27T11:23:22;93506.78;;;13.51;36.59
10606;BME280;5350;42.698;23.148;2023-04-27T11:25:50;93502.88;;;13.40;36.09
10606;BME280;5350;42.698;23.148;2023-04-27T11:28:17;93512.25;;;13.80;36.83
10606;BME280;5350;42.698;23.148;2023-04-27T11:30:45;93498.41;;;14.00;36.84
10606;BME280;5350;42.698;23.148;2023-04-27T11:33:13;93490.50;;;13.75;36.69
10606;BME280;5350;42.698;23.148;2023-04-27T11:35:40;93507.59;;;13.86;36.13
10606;BME280;5350;42.698;23.148;2023-04-27T11:38:14;93466.22;;;13.38;36.92
10606;BME280;5350;42.698;23.148;2023-04-27T11:40:42;93506.91;;;13.37;35.50
10606;BME280;5350;42.698;23.148;2023-04-27T11:43:11;93505.00;;;13.12;36.13
10606;BME280;5350;42.698;23.148;2023-04-27T11:45:41;93497.72;;;13.18;36.94
10606;BME280;5350;42.698;23.148;2023-04-27T11:48:13;93508.16;;;13.31;37.77
10606;BME280;5350;42.698;23.148;2023-04-27T11:50:41;93517.00;;;12.88;37.50
10606;BME280;5350;42.698;23.148;2023-04-27T11:53:08;93516.28;;;12.65;37.67
10606;BME280;5350;42.698;23.148;2023-04-27T11:55:34;93519.72;;;12.43;38.25
10606;BME280;5350;42.698;23.148;2023-04-27T11:58:01;93523.41;;;12.34;38.96
10606;BME280;5350;42.698;23.148;2023-04-27T12:00:28;93515.22;;;12.13;39.73
10606;BME280;5350;42.698;23.148;2023-04-27T12:02:56;93523.53;;;12.07;39.94
10606;BME280;5350;42.698;23.148;2023-04-27T12:05:24;93523.28;;;12.17;39.86
10606;BME280;5350;42.698;23.148;2023-04-27T12:07:51;93520.06;;;12.20;40.87
10606;BME280;5350;42.698;23.148;2023-04-27T12:10:18;93518.22;;;11.98;39.79
10606;BME280;5350;42.698;23.148;2023-04-27T12:12:45;93517.72;;;11.96;39.53
10606;BME280;5350;42.698;23.148;2023-04-27T12:15:12;93521.88;;;12.11;40.19
10606;BME280;5350;42.698;23.148;2023-04-27T12:17:38;93519.69;;;12.13;40.23
10606;BME280;5350;42.698;23.148;2023-04-27T12:20:06;93527.50;;;12.18;39.04
10606;BME280;5350;42.698;23.148;2023-04-27T12:22:35;93530.19;;;12.26;39.11
10606;BME280;5350;42.698;23.148;2023-04-27T12:25:02;93515.50;;;12.34;39.57
10606;BME280;5350;42.698;23.148;2023-04-27T12:27:29;93526.59;;;12.22;40.11
10606;BME280;5350;42.698;23.148;2023-04-27T12:29:56;93519.28;;;12.19;40.44
10606;BME280;5350;42.698;23.148;2023-04-27T12:32:24;93513.69;;;12.21;40.12
10606;BME280;5350;42.698;23.148;2023-04-27T12:34:52;93516.34;;;12.43;39.36
10606;BME280;5350;42.698;23.148;2023-04-27T12:37:18;93509.91;;;12.57;39.17
10606;BME280;5350;42.698;23.148;2023-04-27T12:39:47;93515.69;;;12.68;39.17
10606;BME280;5350;42.698;23.148;2023-04-27T12:42:14;93516.88;;;12.93;39.08
10606;BME280;5350;42.698;23.148;2023-04-27T12:44:43;93511.44;;;12.98;38.64
10606;BME280;5350;42.698;23.148;2023-04-27T12:47:10;93505.88;;;12.99;36.94
10606;BME280;5350;42.698;23.148;2023-04-27T12:49:37;93499.34;;;12.97;37.58
10606;BME280;5350;42.698;23.148;2023-04-27T12:52:04;93507.53;;;13.26;38.12
10606;BME280;5350;42.698;23.148;2023-04-27T12:54:32;93504.94;;;13.86;38.22
10606;BME280;5350;42.698;23.148;2023-04-27T12:57:00;93504.13;;;14.28;36.72
10606;BME280;5350;42.698;23.148;2023-04-27T12:59:30;93517.53;;;14.31;36.16
10606;BME280;5350;42.698;23.148;2023-04-27T13:01:57;93507.28;;;13.79;36.15
10606;BME280;5350;42.698;23.148;2023-04-27T13:04:23;93510.09;;;13.82;35.91
10606;BME280;5350;42.698;23.148;2023-04-27T13:06:50;93517.38;;;13.94;36.02
10606;BME280;5350;42.698;23.148;2023-04-27T13:09:17;93510.84;;;14.08;36.60